createdAt,value
2023-01-01T00:00:49.084Z,8.83
2023-01-01T00:03:16.791Z,8.77
2023-01-01T00:05:44.529Z,8.65
2023-01-01T00:08:11.823Z,8.80
2023-01-01T00:10:39.277Z,8.65
2023-01-01T00:13:06.694Z,8.48
2023-01-01T00:15:34.074Z,8.43
2023-01-01T00:18:01.438Z,8.48
2023-01-01T00:20:34.903Z,8.48
2023-01-01T00:23:03.194Z,8.65
2023-01-01T00:25:32.700Z,8.75
2023-01-01T00:28:00.550Z,8.56
2023-01-01T00:30:27.870Z,8.69
2023-01-01T00:32:56.551Z,8.52
2023-01-01T00:35:25.814Z,8.22
2023-01-01T00:37:54.577Z,8.51
2023-01-01T00:40:22.129Z,8.27
2023-01-01T00:42:49.464Z,8.49
2023-01-01T00:45:21.338Z,8.33
2023-01-01T00:47:51.604Z,8.42
2023-01-01T00:50:20.335Z,8.40
2023-01-01T00:52:49.144Z,8.23
2023-01-01T00:55:16.866Z,8.06
2023-01-01T00:57:44.440Z,8.29
2023-01-01T01:00:12.895Z,8.36
2023-01-01T01:02:41.125Z,8.19
2023-01-01T01:05:09.341Z,8.13
2023-01-01T01:07:37.352Z,8.00
2023-01-01T01:10:06.117Z,8.10
2023-01-01T01:12:35.067Z,8.05
2023-01-01T01:15:03.739Z,8.11
2023-01-01T01:17:31.386Z,8.08
2023-01-01T01:19:58.990Z,7.96
2023-01-01T01:22:29.044Z,8.41
2023-01-01T01:24:57.707Z,8.16
2023-01-01T01:27:25.435Z,8.05
2023-01-01T01:29:53.747Z,7.94
2023-01-01T01:32:21.370Z,8.16
2023-01-01T01:34:49.206Z,8.33
2023-01-01T01:37:16.579Z,8.31
2023-01-01T01:39:44.255Z,8.18
2023-01-01T01:42:17.936Z,8.44
2023-01-01T01:44:53.509Z,8.53
2023-01-01T01:47:35.894Z,8.50
2023-01-01T01:50:11.808Z,8.12
2023-01-01T01:52:48.354Z,8.08
2023-01-01T01:55:15.703Z,7.92
2023-01-01T01:57:43.682Z,7.98
2023-01-01T02:00:12.133Z,7.93
2023-01-01T02:02:55.520Z,8.12
2023-01-01T02:05:23.941Z,7.98
2023-01-01T02:07:52.999Z,7.91
2023-01-01T02:10:21.305Z,7.80
2023-01-01T02:12:48.791Z,7.81
2023-01-01T02:15:16.389Z,7.83
2023-01-01T02:17:57.396Z,7.95
2023-01-01T02:20:56.650Z,8.00
2023-01-01T02:24:02.027Z,8.09
2023-01-01T02:26:42.611Z,8.19
2023-01-01T02:29:19.562Z,8.17
2023-01-01T02:32:19.877Z,8.30
2023-01-01T02:35:00.042Z,8.22
2023-01-01T02:37:30.233Z,8.10
2023-01-01T02:40:00.169Z,8.14
2023-01-01T02:42:29.720Z,8.24
2023-01-01T02:44:59.267Z,8.10
2023-01-01T02:47:26.566Z,7.99
2023-01-01T02:50:08.780Z,7.99
2023-01-01T02:52:49.595Z,7.97
2023-01-01T02:55:29.070Z,8.03
2023-01-01T02:58:25.504Z,8.18
2023-01-01T03:00:59.697Z,8.07
2023-01-01T03:03:35.107Z,8.27
2023-01-01T03:06:24.279Z,8.03
2023-01-01T03:09:19.550Z,7.95
2023-01-01T03:12:14.658Z,8.00
2023-01-01T03:14:58.532Z,8.00
2023-01-01T03:17:41.488Z,7.83
2023-01-01T03:20:15.814Z,7.83
2023-01-01T03:25:23.899Z,7.87
2023-01-01T03:27:59.850Z,7.87
2023-01-01T03:30:31.133Z,7.97
2023-01-01T03:33:09.246Z,7.85
2023-01-01T03:35:50.428Z,7.80
2023-01-01T03:38:22.188Z,7.93
2023-01-01T03:40:53.721Z,7.81
2023-01-01T03:43:49.279Z,7.80
2023-01-01T03:46:21.602Z,7.81
2023-01-01T03:49:03.887Z,7.80
2023-01-01T03:51:56.883Z,7.78
2023-01-01T03:54:58.564Z,7.74
2023-01-01T03:57:35.438Z,7.80
2023-01-01T04:00:08.801Z,7.71
2023-01-01T04:02:50.472Z,7.70
2023-01-01T04:05:20.410Z,7.76
2023-01-01T04:10:19.091Z,7.69
2023-01-01T04:12:49.301Z,7.71
2023-01-01T04:15:18.912Z,7.70
2023-01-01T04:17:46.709Z,7.73
2023-01-01T04:20:14.578Z,7.79
2023-01-01T04:22:42.197Z,7.74
2023-01-01T04:25:10.001Z,7.69
2023-01-01T04:27:38.430Z,7.68
2023-01-01T04:30:08.766Z,7.70
2023-01-01T04:32:36.152Z,7.68
2023-01-01T04:35:03.758Z,7.74
2023-01-01T04:37:31.062Z,7.69
2023-01-01T04:39:58.560Z,7.64
2023-01-01T04:42:25.948Z,7.71
2023-01-01T04:44:53.770Z,7.74
2023-01-01T04:47:22.303Z,7.74
2023-01-01T04:49:49.774Z,7.73
2023-01-01T04:52:17.100Z,7.69
2023-01-01T04:54:44.920Z,7.69
2023-01-01T04:57:12.735Z,7.71
2023-01-01T04:59:41.788Z,7.70
2023-01-01T05:02:09.145Z,7.69
2023-01-01T05:04:36.771Z,7.62
2023-01-01T05:07:04.124Z,7.72
2023-01-01T05:09:31.439Z,7.73
2023-01-01T05:11:59.702Z,7.73
2023-01-01T05:14:27.149Z,7.72
2023-01-01T05:16:55.436Z,7.81
2023-01-01T05:19:23.243Z,7.77
2023-01-01T05:21:50.617Z,7.73
2023-01-01T05:24:18.403Z,7.76
2023-01-01T05:26:46.288Z,7.90
2023-01-01T05:29:16.940Z,7.78
2023-01-01T05:31:45.350Z,7.86
2023-01-01T05:34:13.059Z,7.99
2023-01-01T05:36:40.894Z,7.95
2023-01-01T05:39:10.247Z,7.99
2023-01-01T05:41:37.642Z,8.07
2023-01-01T05:44:09.064Z,7.88
2023-01-01T05:46:37.583Z,7.88
2023-01-01T05:49:05.067Z,7.83
2023-01-01T05:53:59.716Z,7.85
2023-01-01T05:56:28.104Z,7.81
2023-01-01T05:58:55.788Z,7.78
2023-01-01T06:01:25.548Z,7.87
2023-01-01T06:03:54.980Z,7.95
2023-01-01T06:06:25.636Z,7.91
2023-01-01T06:08:55.717Z,7.85
2023-01-01T06:11:23.953Z,8.01
2023-01-01T06:13:56.548Z,7.96
2023-01-01T06:16:24.904Z,7.86
2023-01-01T06:18:52.566Z,7.92
2023-01-01T06:21:22.775Z,7.90
2023-01-01T06:23:50.681Z,8.07
2023-01-01T06:26:20.890Z,7.97
2023-01-01T06:28:49.396Z,7.98
2023-01-01T06:31:19.449Z,8.00
2023-01-01T06:33:47.933Z,7.89
2023-01-01T06:36:17.288Z,7.87
2023-01-01T06:38:47.054Z,7.87
2023-01-01T06:41:16.985Z,8.10
2023-01-01T06:43:44.553Z,8.19
2023-01-01T06:46:17.935Z,8.19
2023-01-01T06:48:47.529Z,7.98
2023-01-01T06:51:17.616Z,7.95
2023-01-01T06:53:46.104Z,8.08
2023-01-01T06:56:13.758Z,8.12
2023-01-01T06:58:41.668Z,8.01
2023-01-01T07:01:15.808Z,7.98
2023-01-01T07:03:44.183Z,8.14
2023-01-01T07:06:12.039Z,8.11
2023-01-01T07:08:39.785Z,8.04
2023-01-01T07:11:07.517Z,8.28
2023-01-01T07:13:35.028Z,8.12
2023-01-01T07:16:06.842Z,8.04
2023-01-01T07:18:39.168Z,7.99
2023-01-01T07:21:28.244Z,7.95
2023-01-01T07:24:01.412Z,8.01
2023-01-01T07:26:30.045Z,8.01
2023-01-01T07:29:04.649Z,8.07
2023-01-01T07:31:38.211Z,7.94
2023-01-01T07:34:06.526Z,7.93
2023-01-01T07:36:34.566Z,8.08
2023-01-01T07:39:02.016Z,8.06
2023-01-01T07:41:29.372Z,8.09
2023-01-01T07:43:57.333Z,8.13
2023-01-01T07:46:24.848Z,8.07
2023-01-01T07:48:52.287Z,7.99
2023-01-01T07:51:19.683Z,7.93
2023-01-01T07:53:47.019Z,7.93
2023-01-01T07:56:14.563Z,7.99
2023-01-01T07:58:42.242Z,7.96
2023-01-01T08:01:12.585Z,8.01
2023-01-01T08:03:40.183Z,8.00
2023-01-01T08:06:10.221Z,8.01
2023-01-01T08:08:38.562Z,7.96
2023-01-01T08:11:06.151Z,8.01
2023-01-01T08:13:33.611Z,8.00
2023-01-01T08:16:01.701Z,8.11
2023-01-01T08:18:30.604Z,8.36
2023-01-01T08:20:57.997Z,8.38
2023-01-01T08:23:25.440Z,8.22
2023-01-01T08:25:52.863Z,8.32
2023-01-01T08:28:20.668Z,8.23
2023-01-01T08:30:48.497Z,8.37
2023-01-01T08:33:15.782Z,8.41
2023-01-01T08:35:46.557Z,8.20
2023-01-01T08:38:16.667Z,8.14
2023-01-01T08:40:45.499Z,8.28
2023-01-01T08:43:12.911Z,8.25
2023-01-01T08:45:40.869Z,8.23
2023-01-01T08:48:08.529Z,8.15
2023-01-01T08:50:36.389Z,8.28
2023-01-01T08:53:04.497Z,8.27
2023-01-01T08:55:31.836Z,8.46
2023-01-01T08:57:59.231Z,8.41
2023-01-01T09:00:26.725Z,8.49
2023-01-01T09:02:54.391Z,8.51
2023-01-01T09:05:21.921Z,8.44
2023-01-01T09:07:49.806Z,8.49
2023-01-01T09:10:17.593Z,8.47
2023-01-01T09:12:44.870Z,8.35
2023-01-01T09:15:17.096Z,8.40
2023-01-01T09:17:44.584Z,8.25
2023-01-01T09:20:12.326Z,8.28
2023-01-01T09:22:40.252Z,8.26
2023-01-01T09:25:07.866Z,8.31
2023-01-01T09:27:35.232Z,8.30
2023-01-01T09:30:02.556Z,8.40
2023-01-01T09:32:31.452Z,8.40
2023-01-01T09:35:00.723Z,8.41
2023-01-01T09:37:28.237Z,8.38
2023-01-01T09:39:55.522Z,8.42
2023-01-01T09:42:35.807Z,8.37
2023-01-01T09:45:25.077Z,8.40
2023-01-01T09:47:57.923Z,8.54
2023-01-01T09:50:49.724Z,8.51
2023-01-01T09:53:41.677Z,8.45
2023-01-01T09:56:17.837Z,8.36
2023-01-01T09:58:45.586Z,8.35
2023-01-01T10:01:29.619Z,8.31
2023-01-01T10:03:57.493Z,8.37
2023-01-01T10:06:34.733Z,8.43
2023-01-01T10:09:20.617Z,8.36
2023-01-01T10:12:00.956Z,8.44
2023-01-01T10:14:42.576Z,8.46
2023-01-01T10:17:28.170Z,8.41
2023-01-01T10:20:02.131Z,8.42
2023-01-01T10:22:38.208Z,8.50
2023-01-01T10:25:17.956Z,8.45
2023-01-01T10:27:59.372Z,8.43
2023-01-01T10:30:28.614Z,8.49
2023-01-01T10:32:57.685Z,8.44
2023-01-01T10:35:35.348Z,8.54
2023-01-01T10:38:04.770Z,8.62
2023-01-01T10:40:33.151Z,8.66
2023-01-01T10:43:02.785Z,8.77
2023-01-01T10:45:35.244Z,9.01
2023-01-01T10:48:11.982Z,8.65
2023-01-01T10:50:54.348Z,8.63
2023-01-01T10:53:25.296Z,8.64
2023-01-01T10:56:03.535Z,8.53
2023-01-01T10:58:40.062Z,8.43
2023-01-01T11:01:11.794Z,8.42
2023-01-01T11:03:54.540Z,8.41
2023-01-01T11:06:32.101Z,8.46
2023-01-01T11:09:07.078Z,8.52
2023-01-01T11:12:03.752Z,8.48
2023-01-01T11:14:38.398Z,8.39
2023-01-01T11:17:07.161Z,8.38
2023-01-01T11:19:37.665Z,8.35
2023-01-01T11:22:07.085Z,8.41
2023-01-01T11:24:35.627Z,8.43
2023-01-01T11:27:24.742Z,8.51
2023-01-01T11:30:04.214Z,8.48
2023-01-01T11:32:36.061Z,8.47
2023-01-01T11:35:08.293Z,8.43
2023-01-01T11:37:38.466Z,8.40
2023-01-01T11:40:18.197Z,8.45
2023-01-01T11:42:50.213Z,8.43
2023-01-01T11:45:38.008Z,8.50
2023-01-01T11:48:16.534Z,8.45
2023-01-01T11:50:54.131Z,8.55
2023-01-01T11:53:24.790Z,8.80
2023-01-01T11:56:03.727Z,8.60
2023-01-01T11:58:37.281Z,8.65
2023-01-01T12:01:29.292Z,8.62
2023-01-01T12:04:08.915Z,8.61
2023-01-01T12:06:39.459Z,8.62
2023-01-01T12:09:22.523Z,8.62
2023-01-01T12:12:07.775Z,8.63
2023-01-01T12:14:59.930Z,8.63
2023-01-01T12:18:05.510Z,8.57
2023-01-01T12:20:37.501Z,8.54
2023-01-01T12:23:05.362Z,8.62
2023-01-01T12:25:45.738Z,8.63
2023-01-01T12:28:16.585Z,8.66
2023-01-01T12:30:53.615Z,8.60
2023-01-01T12:33:46.879Z,8.50
2023-01-01T12:36:37.413Z,8.59
2023-01-01T12:39:37.032Z,8.54
2023-01-01T12:42:17.580Z,8.54
2023-01-01T12:45:30.447Z,8.60
2023-01-01T12:48:04.446Z,8.59
2023-01-01T12:50:37.861Z,8.59
2023-01-01T12:53:36.246Z,8.64
2023-01-01T12:56:22.512Z,8.65
2023-01-01T12:58:57.742Z,8.68
2023-01-01T13:01:34.017Z,8.74
2023-01-01T13:04:07.640Z,8.64
2023-01-01T13:07:06.047Z,8.65
2023-01-01T13:09:37.793Z,8.61
2023-01-01T13:12:11.144Z,8.63
2023-01-01T13:14:45.274Z,8.68
2023-01-01T13:17:20.158Z,8.64
2023-01-01T13:19:49.555Z,8.72
2023-01-01T13:22:26.152Z,8.64
2023-01-01T13:25:24.854Z,8.65
2023-01-01T13:28:03.388Z,8.65
2023-01-01T13:30:43.887Z,8.72
2023-01-01T13:33:21.718Z,8.70
2023-01-01T13:36:09.205Z,8.67
2023-01-01T13:38:45.931Z,8.61
2023-01-01T13:41:32.183Z,8.69
2023-01-01T13:43:59.501Z,8.67
2023-01-01T13:46:33.380Z,8.77
2023-01-01T13:49:03.807Z,8.66
2023-01-01T13:54:29.481Z,8.76
2023-01-01T13:57:20.908Z,8.72
2023-01-01T14:00:16.332Z,8.71
2023-01-01T14:03:02.923Z,8.79
2023-01-01T14:05:35.811Z,8.72
2023-01-01T14:08:06.223Z,8.79
2023-01-01T14:10:37.528Z,8.65
2023-01-01T14:13:08.996Z,8.63
2023-01-01T14:15:54.595Z,8.65
2023-01-01T14:18:31.702Z,8.56
2023-01-01T14:20:59.187Z,8.60
2023-01-01T14:23:41.979Z,8.66
2023-01-01T14:26:15.389Z,8.62
2023-01-01T14:28:43.982Z,8.59
2023-01-01T14:31:18.258Z,8.63
2023-01-01T14:33:46.406Z,8.57
2023-01-01T14:36:22.403Z,8.65
2023-01-01T14:38:52.528Z,8.64
2023-01-01T14:41:24.504Z,8.62
2023-01-01T14:43:55.717Z,8.75
2023-01-01T14:46:25.765Z,8.61
2023-01-01T14:48:57.511Z,8.68
2023-01-01T14:51:27.960Z,8.78
2023-01-01T14:53:59.039Z,8.65
2023-01-01T14:56:31.419Z,8.60
2023-01-01T14:59:29.483Z,8.51
2023-01-01T15:02:04.411Z,8.46
2023-01-01T15:04:32.395Z,8.55
2023-01-01T15:07:00.848Z,8.52
2023-01-01T15:09:31.444Z,8.53
2023-01-01T15:12:00.202Z,8.69
2023-01-01T15:14:31.709Z,8.63
2023-01-01T15:17:03.307Z,8.97
2023-01-01T15:19:30.838Z,8.57
2023-01-01T15:21:59.433Z,8.55
2023-01-01T15:24:30.453Z,8.54
2023-01-01T15:27:03.418Z,8.51
2023-01-01T15:29:36.520Z,8.52
2023-01-01T15:32:08.639Z,8.54
2023-01-01T15:34:49.491Z,8.58
2023-01-01T15:37:42.717Z,8.52
2023-01-01T15:40:13.480Z,8.49
2023-01-01T15:42:47.174Z,8.49
2023-01-01T15:45:37.286Z,8.48
2023-01-01T15:48:05.735Z,8.55
2023-01-01T15:50:43.232Z,8.55
2023-01-01T15:53:23.824Z,8.58
2023-01-01T15:55:57.385Z,8.55
2023-01-01T15:58:35.838Z,8.49
2023-01-01T16:01:07.534Z,8.46
2023-01-01T16:03:37.547Z,8.60
2023-01-01T16:06:05.857Z,8.71
2023-01-01T16:08:37.683Z,8.63
2023-01-01T16:11:05.258Z,8.89
2023-01-01T16:13:32.632Z,8.93
2023-01-01T16:16:02.453Z,8.77
2023-01-01T16:18:35.177Z,8.76
2023-01-01T16:21:04.394Z,8.66
2023-01-01T16:23:31.813Z,8.62
2023-01-01T16:25:59.139Z,8.59
2023-01-01T16:28:26.621Z,8.70
2023-01-01T16:30:54.102Z,8.74
2023-01-01T16:33:22.883Z,8.82
2023-01-01T16:35:51.497Z,9.04
2023-01-01T16:38:19.157Z,9.00
2023-01-01T16:40:46.938Z,8.84
2023-01-01T16:43:17.070Z,8.85
2023-01-01T16:45:45.143Z,8.96
2023-01-01T16:48:12.712Z,8.70
2023-01-01T16:50:40.468Z,8.92
2023-01-01T16:53:08.240Z,8.75
2023-01-01T16:55:35.638Z,8.67
2023-01-01T16:58:46.830Z,8.67
2023-01-01T17:00:50.385Z,8.94
2023-01-01T17:03:18.252Z,8.80
2023-01-01T17:05:45.755Z,8.65
2023-01-01T17:08:13.109Z,8.73
2023-01-01T17:10:41.388Z,8.95
2023-01-01T17:13:08.733Z,8.92
2023-01-01T17:15:36.621Z,8.77
2023-01-01T17:18:04.602Z,8.67
2023-01-01T17:20:34.711Z,8.75
2023-01-01T17:23:02.410Z,8.72
2023-01-01T17:25:29.803Z,8.81
2023-01-01T17:27:57.570Z,8.75
2023-01-01T17:30:25.572Z,8.93
2023-01-01T17:32:52.910Z,9.07
2023-01-01T17:35:21.003Z,8.92
2023-01-01T17:37:48.674Z,9.08
2023-01-01T17:40:17.190Z,9.02
2023-01-01T17:42:44.557Z,9.00
2023-01-01T17:45:13.496Z,8.81
2023-01-01T17:47:40.895Z,8.98
2023-01-01T17:50:08.762Z,9.18
2023-01-01T17:52:36.536Z,9.10
2023-01-01T17:55:04.260Z,9.05
2023-01-01T17:57:31.567Z,9.08
2023-01-01T17:59:59.494Z,9.19
2023-01-01T18:02:27.007Z,9.02
2023-01-01T18:04:54.768Z,8.78
2023-01-01T18:07:22.581Z,8.98
2023-01-01T18:09:49.869Z,8.73
2023-01-01T18:12:17.446Z,8.91
2023-01-01T18:14:44.870Z,8.78
2023-01-01T18:17:12.284Z,8.88
2023-01-01T18:19:39.586Z,8.88
2023-01-01T18:22:06.926Z,8.76
2023-01-01T18:24:35.649Z,8.76
2023-01-01T18:27:03.141Z,8.70
2023-01-01T18:29:30.580Z,8.66
2023-01-01T18:31:57.982Z,8.58
2023-01-01T18:34:25.416Z,8.86
2023-01-01T18:36:55.486Z,8.81
2023-01-01T18:39:27.789Z,8.66
2023-01-01T18:42:34.551Z,8.62
2023-01-01T18:45:13.699Z,8.57
2023-01-01T18:47:41.422Z,8.62
2023-01-01T18:50:19.086Z,8.61
2023-01-01T18:52:47.493Z,8.62
2023-01-01T18:55:19.227Z,8.58
2023-01-01T18:57:54.885Z,8.51
2023-01-01T19:00:28.027Z,8.54
2023-01-01T19:02:58.863Z,8.59
2023-01-01T19:05:30.313Z,8.82
2023-01-01T19:08:06.730Z,8.66
2023-01-01T19:10:45.389Z,8.66
2023-01-01T19:13:29.243Z,8.74
2023-01-01T19:16:02.663Z,8.63
2023-01-01T19:18:33.486Z,8.65
2023-01-01T19:21:12.439Z,8.66
2023-01-01T19:23:55.868Z,8.65
2023-01-01T19:26:32.613Z,8.68
2023-01-01T19:29:13.175Z,8.75
2023-01-01T19:31:40.904Z,8.70
2023-01-01T19:34:09.146Z,8.94
2023-01-01T19:36:39.378Z,9.08
2023-01-01T19:39:07.700Z,9.31
2023-01-01T19:41:35.368Z,9.08
2023-01-01T19:44:08.608Z,9.27
2023-01-01T19:46:39.462Z,8.95
2023-01-01T19:49:07.786Z,9.08
2023-01-01T19:51:36.255Z,9.18
2023-01-01T19:54:04.149Z,8.94
2023-01-01T19:56:32.006Z,8.81
2023-01-01T19:58:59.469Z,8.96
2023-01-01T20:01:26.891Z,9.02
2023-01-01T20:03:56.423Z,8.95
2023-01-01T20:06:25.148Z,8.77
2023-01-01T20:08:53.397Z,8.80
2023-01-01T20:11:21.316Z,8.89
2023-01-01T20:13:48.771Z,8.99
2023-01-01T20:16:16.661Z,9.18
2023-01-01T20:18:44.137Z,9.30
2023-01-01T20:21:30.441Z,9.20
2023-01-01T20:23:57.863Z,8.99
2023-01-01T20:26:26.197Z,9.11
2023-01-01T20:29:12.250Z,8.88
2023-01-01T20:31:39.931Z,8.85
2023-01-01T20:34:07.335Z,9.26
2023-01-01T20:36:53.201Z,9.10
2023-01-01T20:39:22.554Z,9.15
2023-01-01T20:41:51.167Z,9.30
2023-01-01T20:44:18.848Z,9.08
2023-01-01T20:46:48.136Z,8.93
2023-01-01T20:49:20.400Z,8.80
2023-01-01T20:51:52.302Z,8.99
2023-01-01T20:54:20.354Z,9.04
2023-01-01T20:56:47.807Z,8.92
2023-01-01T20:59:34.920Z,8.80
2023-01-01T21:02:09.249Z,8.76
2023-01-01T21:04:39.029Z,8.92
2023-01-01T21:07:09.571Z,8.81
2023-01-01T21:09:38.316Z,8.81
2023-01-01T21:12:06.579Z,8.77
2023-01-01T21:14:34.902Z,8.76
2023-01-01T21:17:17.336Z,8.87
2023-01-01T21:19:45.731Z,8.77
2023-01-01T21:22:14.065Z,8.72
2023-01-01T21:24:41.580Z,8.68
2023-01-01T21:27:15.405Z,8.68
2023-01-01T21:29:49.320Z,8.69
2023-01-01T21:32:22.309Z,8.69
2023-01-01T21:34:51.813Z,8.67
2023-01-01T21:37:52.637Z,8.66
2023-01-01T21:40:37.704Z,9.03
2023-01-01T21:43:04.979Z,9.19
2023-01-01T21:45:35.561Z,9.14
2023-01-01T21:48:11.886Z,9.17
2023-01-01T21:50:45.652Z,9.10
2023-01-01T21:53:20.457Z,8.91
2023-01-01T21:55:53.905Z,8.81
